Time;durP1;ratioP1;P1;durP2;ratioP2;P2;SDS_P1;SDS_P2;PMS_P1;PMS_P2;Temp;Humidity;BMP_temperature;BMP_pressure;BME280_temperature;BME280_humidity;BME280_pressure;Samples;Min_cycle;Max_cycle;Signal;HPM_P1;HPM_P2
2023/01/26 00:00:55;;;;;;;4.07;1.90;;;17.90;41.40;;;;;;5031666;28;20188;-70
2023/01/26 00:03:23;;;;;;;4.70;2.10;;;17.90;41.40;;;;;;5031504;28;20285;-70
2023/01/26 00:05:50;;;;;;;4.55;1.92;;;17.90;41.40;;;;;;5031522;28;20184;-69
2023/01/26 00:08:19;;;;;;;4.03;2.38;;;17.90;41.40;;;;;;5031327;28;20644;-71
2023/01/26 00:10:50;;;;;;;3.95;2.28;;;17.90;41.40;;;;;;5031620;28;20617;-74
2023/01/26 00:13:18;;;;;;;5.22;1.95;;;17.90;41.40;;;;;;5031606;28;20310;-70
2023/01/26 00:15:46;;;;;;;4.75;2.55;;;17.90;41.50;;;;;;5031548;28;20279;-70
2023/01/26 00:18:14;;;;;;;5.47;2.58;;;17.90;41.50;;;;;;5031315;28;20216;-72
2023/01/26 00:20:41;;;;;;;5.55;2.50;;;17.90;41.50;;;;;;5031480;28;20189;-72
2023/01/26 00:23:09;;;;;;;5.20;2.53;;;17.90;41.50;;;;;;5031282;28;20647;-74
2023/01/26 00:25:40;;;;;;;7.63;2.83;;;17.90;41.60;;;;;;5031523;28;20197;-75
2023/01/26 00:28:07;;;;;;;6.68;2.90;;;17.80;41.50;;;;;;5030789;28;20220;-70
2023/01/26 00:30:34;;;;;;;4.85;2.40;;;17.90;41.60;;;;;;5031452;28;20633;-74
2023/01/26 00:33:01;;;;;;;6.13;2.55;;;17.80;42.20;;;;;;5031304;28;20714;-70
2023/01/26 00:35:28;;;;;;;5.80;2.50;;;17.80;41.60;;;;;;5031024;28;20712;-71
2023/01/26 00:37:56;;;;;;;4.50;2.50;;;17.80;41.60;;;;;;5031146;28;20756;-70
2023/01/26 00:40:23;;;;;;;5.22;2.60;;;17.80;41.60;;;;;;5030860;28;20250;-70
2023/01/26 00:42:53;;;;;;;4.10;2.50;;;17.80;41.60;;;;;;5031377;28;20259;-75
2023/01/26 00:45:20;;;;;;;7.78;3.35;;;17.80;41.60;;;;;;5031296;28;20189;-72
2023/01/26 00:47:47;;;;;;;7.70;3.35;;;17.80;41.60;;;;;;5030767;28;20282;-71
2023/01/26 00:50:15;;;;;;;5.78;2.90;;;17.80;41.60;;;;;;5031283;28;20189;-70
2023/01/26 00:52:42;;;;;;;4.50;2.63;;;17.80;41.60;;;;;;5031206;28;20294;-69
2023/01/26 00:55:09;;;;;;;6.47;3.05;;;17.80;41.60;;;;;;5031287;28;20250;-70
2023/01/26 00:57:37;;;;;;;4.53;2.72;;;17.80;41.60;;;;;;5031123;28;20196;-70
2023/01/26 01:00:08;;;;;;;5.25;2.60;;;17.80;41.60;;;;;;5034472;28;20609;-71
2023/01/26 01:02:35;;;;;;;6.07;3.03;;;17.80;41.60;;;;;;5034320;28;20247;-70
2023/01/26 01:05:02;;;;;;;7.45;2.58;;;17.80;41.60;;;;;;5033087;28;20310;-69
2023/01/26 01:07:29;;;;;;;7.88;3.17;;;17.80;41.60;;;;;;5034665;28;20247;-69
2023/01/26 01:09:59;;;;;;;4.25;2.80;;;17.80;41.60;;;;;;5034629;28;20189;-74
2023/01/26 01:12:26;;;;;;;7.82;3.10;;;17.70;41.60;;;;;;5034179;28;20230;-71
2023/01/26 01:14:53;;;;;;;7.50;2.88;;;17.80;41.70;;;;;;5034410;28;20228;-71
2023/01/26 01:17:22;;;;;;;4.70;2.40;;;17.70;41.60;;;;;;5033893;28;20658;-72
2023/01/26 01:19:49;;;;;;;6.68;3.20;;;17.70;41.60;;;;;;5033893;28;20216;-75
2023/01/26 01:22:17;;;;;;;5.93;2.63;;;17.70;41.60;;;;;;5034097;28;20610;-70
2023/01/26 01:24:44;;;;;;;7.90;2.90;;;17.70;41.60;;;;;;5034103;28;20240;-72
2023/01/26 01:27:11;;;;;;;7.53;3.13;;;17.70;41.60;;;;;;5034241;28;20246;-69
2023/01/26 01:29:38;;;;;;;8.55;3.00;;;17.70;41.60;;;;;;5034010;28;20216;-71
2023/01/26 01:32:05;;;;;;;8.20;3.30;;;17.70;41.60;;;;;;5033722;28;20231;-69
2023/01/26 01:34:34;;;;;;;7.70;3.00;;;17.70;41.60;;;;;;5033870;28;20228;-70
2023/01/26 01:37:01;;;;;;;8.18;3.20;;;17.70;41.60;;;;;;5034055;28;20647;-70
2023/01/26 01:39:28;;;;;;;5.72;2.72;;;17.70;41.70;;;;;;5034053;28;20628;-75
2023/01/26 01:41:56;;;;;;;5.90;3.10;;;17.70;41.70;;;;;;5033769;28;20188;-72
2023/01/26 01:44:24;;;;;;;8.00;3.00;;;17.60;41.60;;;;;;5033732;28;20694;-70
2023/01/26 01:46:54;;;;;;;7.20;3.38;;;17.70;41.70;;;;;;5033813;28;20189;-71
2023/01/26 01:49:27;;;;;;;7.20;2.83;;;17.70;41.70;;;;;;5033928;28;20220;-71
2023/01/26 01:52:00;;;;;;;8.93;3.00;;;17.70;41.70;;;;;;5033796;28;20196;-70
2023/01/26 01:54:35;;;;;;;5.05;2.70;;;17.70;41.70;;;;;;5033703;28;20270;-73
2023/01/26 01:57:14;;;;;;;7.25;3.33;;;17.70;41.70;;;;;;5033658;28;20188;-71
2023/01/26 01:59:43;;;;;;;6.70;2.75;;;17.60;41.70;;;;;;5033624;28;20219;-70
2023/01/26 02:02:12;;;;;;;7.18;3.00;;;17.60;41.70;;;;;;5031429;28;20204;-69
2023/01/26 02:04:39;;;;;;;7.07;3.53;;;17.60;41.70;;;;;;5027564;28;20734;-73
2023/01/26 02:07:09;;;;;;;8.23;3.38;;;17.60;41.70;;;;;;5033576;28;20250;-69
2023/01/26 02:12:29;;;;;;;8.30;3.30;;;17.60;41.70;;;;;;5033095;28;20191;-70
2023/01/26 02:14:58;;;;;;;6.85;3.13;;;17.60;41.80;;;;;;5033181;28;20289;-75
2023/01/26 02:17:25;;;;;;;6.47;3.30;;;17.60;41.80;;;;;;5032693;28;20184;-71
2023/01/26 02:20:02;;;;;;;4.95;3.00;;;17.60;41.80;;;;;;5032897;28;20242;-69
2023/01/26 02:22:43;;;;;;;6.22;2.88;;;17.60;41.80;;;;;;5032956;28;20200;-70
2023/01/26 02:25:20;;;;;;;6.45;3.00;;;17.60;41.80;;;;;;5032119;28;20313;-70
2023/01/26 02:27:50;;;;;;;6.80;3.10;;;17.60;41.80;;;;;;5032955;28;20199;-68
2023/01/26 02:30:18;;;;;;;6.85;2.90;;;17.60;41.90;;;;;;5032702;28;20224;-70
2023/01/26 02:32:45;;;;;;;6.28;2.90;;;17.60;41.80;;;;;;5031189;28;20662;-69
2023/01/26 02:35:12;;;;;;;4.60;2.83;;;17.60;41.80;;;;;;5032847;28;20224;-73
2023/01/26 02:37:39;;;;;;;7.75;3.05;;;17.50;41.80;;;;;;5032676;28;20599;-71
2023/01/26 02:40:16;;;;;;;5.85;2.60;;;17.50;41.80;;;;;;5033079;28;20286;-70
2023/01/26 02:42:43;;;;;;;6.25;2.95;;;17.50;41.80;;;;;;5031380;28;20690;-70
2023/01/26 02:45:14;;;;;;;5.78;2.92;;;17.50;41.80;;;;;;5032722;28;20290;-74
2023/01/26 02:47:43;;;;;;;6.22;2.90;;;17.50;41.80;;;;;;5032809;28;20193;-69
2023/01/26 02:50:10;;;;;;;6.05;2.92;;;17.50;41.80;;;;;;5032672;28;20590;-69
2023/01/26 02:52:38;;;;;;;6.35;3.55;;;17.50;41.80;;;;;;5032314;28;20199;-69
2023/01/26 02:57:53;;;;;;;7.57;3.22;;;17.50;41.80;;;;;;5032360;28;20564;-70
2023/01/26 03:00:24;;;;;;;6.85;3.00;;;17.50;41.80;;;;;;5032534;28;20266;-69
2023/01/26 03:02:53;;;;;;;6.55;2.85;;;17.50;41.80;;;;;;5032635;28;20563;-71
2023/01/26 03:05:20;;;;;;;5.15;2.50;;;17.50;41.80;;;;;;5031347;28;20244;-75
2023/01/26 03:07:47;;;;;;;4.90;2.38;;;17.50;41.80;;;;;;5032193;28;20204;-71
2023/01/26 03:10:17;;;;;;;7.28;3.38;;;17.50;41.80;;;;;;5031639;28;20224;-74
2023/01/26 03:12:44;;;;;;;4.88;2.40;;;17.50;41.80;;;;;;5031988;28;20196;-70
2023/01/26 03:29:00;;;;;;;4.93;2.45;;;17.40;41.80;;;;;;5010229;28;20276;-70
2023/01/26 03:31:27;;;;;;;6.93;2.72;;;17.40;41.80;;;;;;5009712;28;20205;-70
2023/01/26 03:33:57;;;;;;;5.65;2.72;;;17.40;41.80;;;;;;5009670;28;20189;-69
2023/01/26 03:36:24;;;;;;;7.70;2.72;;;17.40;42.40;;;;;;5009317;28;20280;-70
2023/01/26 03:38:51;;;;;;;5.32;2.22;;;17.40;41.80;;;;;;5010070;28;20308;-71
2023/01/26 03:57:48;;;;;;;5.22;2.00;;;17.40;41.80;;;;;;5009660;28;20247;-70
2023/01/26 04:00:15;;;;;;;5.35;2.25;;;17.40;41.70;;;;;;5009318;28;20358;-69
2023/01/26 04:08:22;;;;;;;4.50;2.17;;;17.30;41.60;;;;;;5031506;28;20184;-71
2023/01/26 04:10:51;;;;;;;4.43;2.10;;;17.30;41.60;;;;;;5031544;28;20220;-70
2023/01/26 04:21:35;;;;;;;3.83;2.05;;;17.30;41.60;;;;;;5026018;28;20223;-69
2023/01/26 04:24:08;;;;;;;6.10;2.00;;;17.30;41.60;;;;;;5010457;28;20193;-73
2023/01/26 04:26:36;;;;;;;6.57;2.38;;;17.30;41.60;;;;;;5011047;28;20217;-70
2023/01/26 04:29:05;;;;;;;4.65;2.20;;;17.30;41.60;;;;;;5011264;28;20271;-71
2023/01/26 04:31:33;;;;;;;5.22;2.00;;;17.30;41.60;;;;;;5011523;28;20214;-70
2023/01/26 04:34:00;;;;;;;5.85;2.30;;;17.30;41.60;;;;;;5013735;28;20585;-69
2023/01/26 04:36:28;;;;;;;4.35;1.80;;;17.30;41.60;;;;;;5014746;28;20221;-70
2023/01/26 04:38:57;;;;;;;4.38;2.10;;;17.20;41.50;;;;;;5014958;28;20224;-70
2023/01/26 04:41:24;;;;;;;3.88;2.00;;;17.30;41.60;;;;;;5015370;28;20265;-69
2023/01/26 04:43:52;;;;;;;6.72;1.85;;;17.30;41.60;;;;;;5014170;28;20259;-70
2023/01/26 04:46:19;;;;;;;6.90;2.28;;;17.30;41.60;;;;;;5014513;28;20770;-69
2023/01/26 04:48:46;;;;;;;5.00;1.75;;;17.30;41.60;;;;;;5015011;28;20251;-70
2023/01/26 04:51:15;;;;;;;4.25;1.95;;;17.30;41.60;;;;;;5015279;28;20264;-69
2023/01/26 04:53:43;;;;;;;3.13;1.67;;;17.30;41.60;;;;;;5014137;28;20256;-70
2023/01/26 04:56:24;;;;;;;4.88;2.15;;;17.30;41.50;;;;;;5014684;28;20641;-71
2023/01/26 04:58:52;;;;;;;3.45;1.73;;;17.20;41.50;;;;;;5031826;28;20658;-71
2023/01/26 05:01:20;;;;;;;3.85;1.80;;;17.20;41.50;;;;;;5034375;28;20579;-72
2023/01/26 05:03:47;;;;;;;4.40;1.77;;;17.20;41.40;;;;;;5034653;28;20656;-74
2023/01/26 05:06:15;;;;;;;6.07;1.83;;;17.20;41.50;;;;;;5034209;28;20294;-70
2023/01/26 05:08:42;;;;;;;4.55;1.80;;;17.20;41.50;;;;;;5034420;28;20188;-70
2023/01/26 05:11:11;;;;;;;4.95;2.00;;;17.20;41.40;;;;;;5033908;28;20624;-69
2023/01/26 05:13:40;;;;;;;3.90;2.17;;;17.20;41.40;;;;;;5034225;28;20189;-68
2023/01/26 05:16:08;;;;;;;4.13;1.75;;;17.20;41.40;;;;;;5034267;28;20224;-70
2023/01/26 05:18:35;;;;;;;4.35;1.98;;;17.20;41.40;;;;;;5033763;28;20196;-71
2023/01/26 05:21:02;;;;;;;7.60;2.00;;;17.20;41.40;;;;;;5034536;28;20223;-70
2023/01/26 05:23:29;;;;;;;5.78;1.80;;;17.20;41.40;;;;;;5034475;28;20250;-69
2023/01/26 05:25:56;;;;;;;3.58;1.75;;;17.20;41.40;;;;;;5034156;28;20240;-75
2023/01/26 05:28:25;;;;;;;7.13;1.90;;;17.20;41.40;;;;;;5034000;28;20188;-70
2023/01/26 05:30:52;;;;;;;3.67;1.55;;;17.20;41.40;;;;;;5034102;28;20212;-73
2023/01/26 05:33:20;;;;;;;5.05;1.98;;;17.20;41.40;;;;;;5034102;28;20238;-69
2023/01/26 05:35:48;;;;;;;4.07;1.80;;;17.20;41.40;;;;;;5033302;28;20721;-70
2023/01/26 05:38:15;;;;;;;4.68;2.15;;;17.10;41.40;;;;;;5033413;28;20203;-71
2023/01/26 05:40:42;;;;;;;4.80;1.98;;;17.20;41.40;;;;;;5034239;28;20204;-74
2023/01/26 05:43:10;;;;;;;5.70;2.10;;;17.20;41.40;;;;;;5033623;28;20619;-69
2023/01/26 05:45:39;;;;;;;5.72;2.10;;;17.20;41.40;;;;;;5033391;28;20220;-70
2023/01/26 05:48:06;;;;;;;4.20;1.73;;;17.20;41.40;;;;;;5033526;28;20608;-70
2023/01/26 05:50:34;;;;;;;4.60;1.95;;;17.20;41.50;;;;;;5033516;28;20246;-71
2023/01/26 05:53:01;;;;;;;2.60;1.60;;;17.20;41.40;;;;;;5033995;28;20216;-72
2023/01/26 05:55:29;;;;;;;5.05;1.70;;;17.20;41.40;;;;;;5033681;28;20194;-70
2023/01/26 05:57:56;;;;;;;2.40;1.40;;;17.20;41.40;;;;;;5033662;28;20259;-73
2023/01/26 06:00:24;;;;;;;3.70;1.50;;;17.30;41.50;;;;;;5033657;28;20325;-70
2023/01/26 06:02:53;;;;;;;2.97;1.33;;;17.30;41.60;;;;;;5032685;28;20216;-74
2023/01/26 06:05:20;;;;;;;2.33;1.30;;;17.30;41.50;;;;;;5032773;28;20290;-74
2023/01/26 06:07:47;;;;;;;2.67;1.63;;;17.30;41.50;;;;;;5032963;28;20282;-69
2023/01/26 06:10:15;;;;;;;4.60;1.60;;;17.40;41.50;;;;;;5032550;28;20184;-69
2023/01/26 06:12:42;;;;;;;2.88;1.50;;;17.40;41.60;;;;;;5033413;28;20266;-69
2023/01/26 06:15:11;;;;;;;2.38;1.50;;;17.40;41.50;;;;;;5033303;28;20559;-70
2023/01/26 06:17:38;;;;;;;2.88;1.35;;;17.40;41.50;;;;;;5032742;28;20212;-76
2023/01/26 06:20:09;;;;;;;3.53;1.52;;;17.40;41.50;;;;;;5033176;28;20279;-74
2023/01/26 06:22:37;;;;;;;3.58;1.90;;;17.50;41.60;;;;;;5032796;28;20658;-71
2023/01/26 06:25:04;;;;;;;2.58;1.58;;;17.50;41.60;;;;;;5032979;28;20220;-72
2023/01/26 06:27:33;;;;;;;3.45;1.55;;;17.50;41.50;;;;;;5033092;28;20216;-72
2023/01/26 06:30:00;;;;;;;2.65;1.40;;;17.50;41.50;;;;;;5032678;28;20189;-73
2023/01/26 06:32:28;;;;;;;3.00;1.35;;;17.50;41.50;;;;;;5032583;28;20221;-70
2023/01/26 06:34:55;;;;;;;2.60;1.50;;;17.50;41.50;;;;;;5032603;28;20203;-70
2023/01/26 06:37:24;;;;;;;4.22;1.83;;;17.60;41.50;;;;;;5031158;28;20636;-69
2023/01/26 06:39:51;;;;;;;1.75;1.30;;;17.60;41.50;;;;;;5032531;28;20197;-70
2023/01/26 06:42:18;;;;;;;2.88;1.60;;;17.60;41.50;;;;;;5032707;28;20220;-69
2023/01/26 06:44:45;;;;;;;3.08;1.48;;;17.60;41.50;;;;;;5031546;28;20200;-69
2023/01/26 06:47:13;;;;;;;2.40;1.45;;;17.60;41.50;;;;;;5031425;28;20690;-69
2023/01/26 06:49:40;;;;;;;3.38;1.48;;;17.70;41.50;;;;;;5031200;28;20276;-70
2023/01/26 06:52:27;;;;;;;3.90;1.58;;;17.70;41.50;;;;;;5032497;28;20221;-70
2023/01/26 06:54:55;;;;;;;2.28;1.42;;;17.70;41.50;;;;;;5032027;28;20670;-71
2023/01/26 06:57:22;;;;;;;3.58;1.50;;;17.70;41.50;;;;;;5031818;28;20733;-70
2023/01/26 06:59:49;;;;;;;3.05;1.55;;;17.70;41.50;;;;;;5032243;28;20332;-72
2023/01/26 07:02:18;;;;;;;2.47;1.67;;;17.70;41.40;;;;;;5032442;28;20864;-70
2023/01/26 07:04:46;;;;;;;2.30;1.40;;;17.80;41.60;;;;;;5031847;28;20249;-72
2023/01/26 07:07:13;;;;;;;3.25;1.45;;;17.70;41.40;;;;;;5032250;28;20278;-71
2023/01/26 07:09:42;;;;;;;2.85;1.33;;;17.80;41.50;;;;;;5031894;28;20235;-72
2023/01/26 07:12:12;;;;;;;2.42;1.67;;;17.80;41.50;;;;;;5031986;28;20224;-70
2023/01/26 07:14:39;;;;;;;2.42;1.50;;;17.80;41.50;;;;;;5031271;28;20274;-70
2023/01/26 07:17:07;;;;;;;2.10;1.38;;;17.80;41.50;;;;;;5032117;28;20224;-69
2023/01/26 07:19:36;;;;;;;2.47;1.30;;;17.80;41.40;;;;;;5032278;28;20192;-70
2023/01/26 07:22:03;;;;;;;2.42;1.20;;;17.80;41.40;;;;;;5031816;28;20216;-73
2023/01/26 07:24:30;;;;;;;3.95;1.70;;;17.90;41.50;;;;;;5031684;28;20199;-70
2023/01/26 07:26:59;;;;;;;2.22;1.50;;;17.80;41.40;;;;;;5031745;28;20635;-73
2023/01/26 07:29:26;;;;;;;3.28;1.70;;;17.90;41.50;;;;;;5031404;28;20258;-70
2023/01/26 07:31:53;;;;;;;1.80;1.23;;;17.90;41.40;;;;;;5031432;28;20192;-71
2023/01/26 07:34:21;;;;;;;2.58;1.50;;;17.90;41.40;;;;;;5031788;28;20326;-72
2023/01/26 07:36:48;;;;;;;2.15;1.23;;;17.90;41.40;;;;;;5031812;28;20200;-69
2023/01/26 07:39:15;;;;;;;2.40;1.13;;;17.90;41.40;;;;;;5031795;28;20193;-69
2023/01/26 07:41:42;;;;;;;2.45;1.40;;;17.90;41.40;;;;;;5013544;28;20613;-69
2023/01/26 07:44:12;;;;;;;2.10;1.17;;;17.90;41.30;;;;;;5011600;28;20325;-69
2023/01/26 07:46:40;;;;;;;2.15;1.45;;;18.00;41.40;;;;;;5012265;28;20220;-69
2023/01/26 07:49:08;;;;;;;4.93;1.80;;;18.00;41.40;;;;;;5011271;28;20217;-70
2023/01/26 07:51:36;;;;;;;2.53;1.42;;;18.00;41.40;;;;;;5035848;28;20204;-70
2023/01/26 07:54:03;;;;;;;4.68;1.83;;;18.00;41.30;;;;;;5030358;28;20748;-70
2023/01/26 07:56:30;;;;;;;8.98;2.13;;;18.00;41.40;;;;;;5013661;28;20252;-71
2023/01/26 07:58:57;;;;;;;9.93;2.20;;;18.00;41.60;;;;;;5021760;28;20216;-71
2023/01/26 08:01:38;;;;;;;5.97;1.83;;;18.10;41.60;;;;;;5012668;28;20227;-70
2023/01/26 08:04:07;;;;;;;7.13;1.92;;;18.10;41.60;;;;;;4996708;28;20247;-72
2023/01/26 08:06:35;;;;;;;3.33;1.58;;;18.10;41.80;;;;;;5029643;28;20232;-68
2023/01/26 08:09:06;;;;;;;3.15;1.52;;;18.10;41.60;;;;;;5000131;28;20220;-71
2023/01/26 08:11:49;;;;;;;3.42;1.77;;;18.20;41.80;;;;;;5005463;28;20211;-69
2023/01/26 08:14:18;;;;;;;3.75;1.80;;;18.20;41.60;;;;;;5020681;28;20243;-71
2023/01/26 08:16:48;;;;;;;5.63;1.50;;;18.30;41.70;;;;;;4965738;28;20197;-71
2023/01/26 08:19:16;;;;;;;2.83;1.58;;;18.30;41.70;;;;;;5031004;28;20231;-69
2023/01/26 08:21:53;;;;;;;2.22;1.40;;;18.30;41.60;;;;;;5032832;28;20192;-70
2023/01/26 08:24:25;;;;;;;2.90;1.27;;;18.30;41.60;;;;;;5033069;28;20224;-73
2023/01/26 08:26:52;;;;;;;3.10;1.70;;;18.30;41.70;;;;;;5029173;28;20246;-71
2023/01/26 08:29:22;;;;;;;5.93;1.77;;;18.30;41.70;;;;;;5034037;28;20216;-69
2023/01/26 08:31:59;;;;;;;3.38;1.70;;;18.30;41.70;;;;;;5024802;28;20204;-71
2023/01/26 08:34:27;;;;;;;3.28;1.50;;;18.40;42.40;;;;;;5026015;28;20231;-72
2023/01/26 08:36:57;;;;;;;2.45;1.55;;;18.40;41.70;;;;;;5027034;28;20230;-73
2023/01/26 08:39:28;;;;;;;1.92;1.15;;;18.40;41.80;;;;;;5034214;28;20263;-70
2023/01/26 08:41:56;;;;;;;1.73;1.40;;;18.40;41.70;;;;;;5034866;28;20196;-73
2023/01/26 08:44:24;;;;;;;2.90;1.48;;;18.50;41.70;;;;;;5033779;28;20220;-71
2023/01/26 08:46:53;;;;;;;2.25;1.52;;;18.50;41.70;;;;;;5026799;28;20232;-70
2023/01/26 08:49:20;;;;;;;3.58;1.50;;;18.50;41.70;;;;;;5033940;28;20220;-71
2023/01/26 08:51:51;;;;;;;8.18;2.03;;;18.40;42.30;;;;;;5031076;28;20379;-71
2023/01/26 08:54:19;;;;;;;2.30;1.38;;;18.50;42.40;;;;;;5027083;28;20763;-70
2023/01/26 08:56:49;;;;;;;2.50;1.73;;;18.50;41.70;;;;;;5017198;28;20207;-73
2023/01/26 08:59:18;;;;;;;2.58;1.42;;;18.50;41.70;;;;;;5037907;28;20310;-71
2023/01/26 09:01:46;;;;;;;2.33;1.50;;;18.60;41.80;;;;;;5032785;28;20200;-73
2023/01/26 09:04:15;;;;;;;2.97;1.33;;;18.60;41.80;;;;;;5017272;28;20251;-72
2023/01/26 09:06:43;;;;;;;8.10;2.10;;;18.60;41.80;;;;;;5021020;28;20234;-74
2023/01/26 09:09:12;;;;;;;2.15;1.23;;;18.60;41.80;;;;;;5029904;28;20623;-73
2023/01/26 09:11:39;;;;;;;2.17;1.35;;;18.60;41.70;;;;;;5028751;28;20223;-73
2023/01/26 09:14:06;;;;;;;1.92;1.40;;;18.60;41.70;;;;;;5024467;28;20224;-74
2023/01/26 09:16:33;;;;;;;2.38;1.42;;;18.60;41.70;;;;;;5030968;28;20254;-76
2023/01/26 09:19:01;;;;;;;3.40;1.40;;;18.60;41.70;;;;;;5030855;28;20919;-73
2023/01/26 09:21:29;;;;;;;3.65;1.50;;;18.70;41.80;;;;;;5029195;28;20204;-79
2023/01/26 09:23:57;;;;;;;3.13;1.58;;;18.70;41.80;;;;;;5029415;28;20220;-74
2023/01/26 09:26:25;;;;;;;3.22;1.48;;;18.70;41.80;;;;;;5031677;28;20712;-74
2023/01/26 09:28:53;;;;;;;2.55;1.40;;;18.70;41.90;;;;;;5030530;28;20639;-78
2023/01/26 09:31:20;;;;;;;3.00;1.50;;;18.70;41.90;;;;;;5030316;28;20188;-73
2023/01/26 09:33:49;;;;;;;2.60;1.52;;;18.80;41.90;;;;;;5028236;28;20274;-74
2023/01/26 09:36:16;;;;;;;2.30;1.50;;;18.80;41.90;;;;;;5012289;28;20957;-75
2023/01/26 09:38:46;;;;;;;1.80;1.15;;;18.80;41.90;;;;;;5030018;28;20220;-74
2023/01/26 09:41:26;;;;;;;1.77;1.27;;;18.80;41.80;;;;;;5029611;28;20242;-73
2023/01/26 09:43:57;;;;;;;1.65;1.15;;;18.80;41.90;;;;;;5028257;28;20223;-74
2023/01/26 09:46:27;;;;;;;3.22;1.42;;;18.90;42.00;;;;;;5031899;28;20266;-73
2023/01/26 09:49:06;;;;;;;2.20;1.33;;;18.90;41.90;;;;;;5030023;28;20259;-73
2023/01/26 09:51:36;;;;;;;2.45;1.65;;;18.90;41.90;;;;;;5030561;28;20262;-73
2023/01/26 09:54:15;;;;;;;3.15;1.60;;;18.90;41.90;;;;;;5029799;28;20873;-72
2023/01/26 09:56:43;;;;;;;6.13;1.35;;;18.90;42.00;;;;;;5027554;28;20625;-74
2023/01/26 09:59:24;;;;;;;4.15;1.55;;;18.90;41.90;;;;;;5025501;28;20216;-75
2023/01/26 10:01:57;;;;;;;2.92;1.60;;;18.90;41.90;;;;;;5028332;28;20208;-76
2023/01/26 10:04:35;;;;;;;1.75;1.17;;;19.00;41.90;;;;;;5030222;28;20233;-75
2023/01/26 10:07:05;;;;;;;2.10;1.48;;;19.00;42.00;;;;;;5029564;28;20262;-68
2023/01/26 10:09:37;;;;;;;5.05;1.63;;;19.00;41.90;;;;;;5028158;28;20809;-70
2023/01/26 10:12:08;;;;;;;4.82;1.90;;;19.00;42.00;;;;;;5030782;28;20193;-68
2023/01/26 10:14:40;;;;;;;4.47;1.63;;;19.00;42.60;;;;;;5028219;28;20258;-70
2023/01/26 10:17:13;;;;;;;5.75;1.50;;;19.10;42.10;;;;;;5019707;28;20205;-68
2023/01/26 10:19:45;;;;;;;4.05;1.45;;;19.10;42.70;;;;;;5031685;28;20756;-70
2023/01/26 10:22:16;;;;;;;7.53;1.92;;;19.10;42.00;;;;;;5032852;28;20200;-69
2023/01/26 10:24:48;;;;;;;9.13;1.77;;;19.00;41.80;;;;;;5032657;28;20228;-69
2023/01/26 10:27:17;;;;;;;7.80;1.67;;;19.10;41.90;;;;;;5033780;28;20216;-68
2023/01/26 10:29:46;;;;;;;4.38;1.33;;;19.10;41.80;;;;;;5032382;28;20910;-68
2023/01/26 10:32:17;;;;;;;5.15;1.60;;;19.10;41.70;;;;;;5034080;28;20203;-70
2023/01/26 10:34:45;;;;;;;5.07;1.50;;;19.10;41.70;;;;;;5019760;28;20215;-69
2023/01/26 10:37:20;;;;;;;3.22;1.80;;;19.10;41.70;;;;;;5024424;28;20283;-69
2023/01/26 10:40:00;;;;;;;5.88;1.70;;;19.10;41.60;;;;;;5022745;28;20239;-69
2023/01/26 10:42:29;;;;;;;4.53;1.70;;;19.10;41.60;;;;;;5023213;28;20212;-69
2023/01/26 10:44:57;;;;;;;2.55;1.38;;;19.10;41.50;;;;;;5030957;28;20306;-69
2023/01/26 10:47:24;;;;;;;5.70;1.55;;;19.10;41.40;;;;;;5030745;28;20227;-69
2023/01/26 10:49:51;;;;;;;7.57;1.85;;;19.10;41.40;;;;;;5031310;28;20255;-71
2023/01/26 10:52:21;;;;;;;4.85;1.70;;;19.10;41.30;;;;;;5030888;28;20650;-71
2023/01/26 10:54:49;;;;;;;6.03;2.28;;;19.10;41.20;;;;;;5030478;28;20228;-69
2023/01/26 10:57:26;;;;;;;8.35;1.75;;;19.10;41.30;;;;;;5023870;28;20200;-69
2023/01/26 10:59:56;;;;;;;3.53;1.75;;;19.10;41.30;;;;;;5034483;28;20633;-68
2023/01/26 11:02:27;;;;;;;4.45;1.50;;;19.10;41.20;;;;;;5022343;28;21236;-70
2023/01/26 11:05:15;;;;;;;4.57;1.80;;;19.10;41.30;;;;;;5016395;28;20237;-69
2023/01/26 11:07:44;;;;;;;3.90;1.40;;;19.10;41.30;;;;;;5018192;28;20299;-70
2023/01/26 11:10:20;;;;;;;3.30;1.40;;;19.10;41.20;;;;;;5024558;28;20225;-69
2023/01/26 11:12:49;;;;;;;4.32;1.48;;;19.10;41.10;;;;;;5029765;28;20218;-69
2023/01/26 11:15:18;;;;;;;2.47;1.60;;;19.10;41.00;;;;;;5030338;28;20281;-69
2023/01/26 11:17:51;;;;;;;3.97;1.40;;;19.20;41.00;;;;;;5029310;28;20650;-69
2023/01/26 11:20:44;;;;;;;2.90;1.30;;;19.10;40.90;;;;;;5029582;28;20246;-69
2023/01/26 11:23:28;;;;;;;4.18;1.90;;;19.10;40.90;;;;;;5022757;28;20204;-69
2023/01/26 11:26:36;;;;;;;4.95;1.42;;;19.10;40.80;;;;;;5032663;28;20253;-69
2023/01/26 11:29:24;;;;;;;4.82;1.45;;;19.10;40.60;;;;;;4972441;28;20224;-69
2023/01/26 11:31:59;;;;;;;4.72;1.30;;;19.10;40.60;;;;;;5016850;28;20616;-69
2023/01/26 11:34:37;;;;;;;3.00;1.40;;;19.10;40.60;;;;;;5020396;28;20279;-69
2023/01/26 11:37:36;;;;;;;4.50;1.50;;;19.10;40.60;;;;;;5017142;28;20201;-70
2023/01/26 11:40:22;;;;;;;3.03;1.50;;;19.10;40.60;;;;;;5020858;28;20351;-69
2023/01/26 11:43:03;;;;;;;2.72;1.35;;;19.10;40.60;;;;;;5025034;28;20323;-69
2023/01/26 11:45:37;;;;;;;4.65;1.52;;;19.10;40.60;;;;;;5016897;28;20645;-69
2023/01/26 11:48:20;;;;;;;2.40;1.13;;;19.10;40.60;;;;;;5017048;28;20307;-69
2023/01/26 11:50:55;;;;;;;5.35;1.30;;;19.10;40.60;;;;;;5020462;28;20227;-69
2023/01/26 11:53:39;;;;;;;3.72;1.40;;;19.10;40.60;;;;;;5018975;28;20758;-69
2023/01/26 11:56:15;;;;;;;3.35;1.25;;;19.10;40.60;;;;;;5020899;28;20262;-69
2023/01/26 11:58:46;;;;;;;3.45;1.50;;;19.10;40.60;;;;;;5018937;28;20251;-69
2023/01/26 12:01:20;;;;;;;3.40;1.30;;;19.10;40.60;;;;;;5020678;28;20246;-70
2023/01/26 12:03:49;;;;;;;3.88;1.40;;;19.10;40.60;;;;;;5015594;28;20733;-69
2023/01/26 12:06:19;;;;;;;7.78;1.80;;;19.10;40.40;;;;;;5019094;28;20686;-68
2023/01/26 12:08:52;;;;;;;3.05;1.38;;;19.10;40.30;;;;;;5016033;28;20628;-69
2023/01/26 12:11:24;;;;;;;3.88;1.50;;;19.10;40.30;;;;;;5018507;28;20260;-69
2023/01/26 12:14:18;;;;;;;7.70;1.90;;;19.10;40.30;;;;;;5019872;28;20229;-69
2023/01/26 12:16:57;;;;;;;3.08;1.25;;;19.10;40.10;;;;;;5020588;28;20204;-69
2023/01/26 12:19:38;;;;;;;2.83;1.58;;;19.10;40.10;;;;;;5014352;28;20278;-69
2023/01/26 12:22:23;;;;;;;4.45;1.35;;;19.10;40.10;;;;;;5015984;28;20270;-69
2023/01/26 12:24:55;;;;;;;3.60;1.30;;;19.10;40.10;;;;;;5017105;28;20223;-69
2023/01/26 12:27:27;;;;;;;3.50;1.58;;;19.10;40.10;;;;;;5016834;28;20225;-69
2023/01/26 12:30:01;;;;;;;5.38;1.70;;;19.10;40.10;;;;;;5016383;28;20275;-70
2023/01/26 12:32:30;;;;;;;2.92;1.17;;;19.10;40.00;;;;;;5015809;28;20244;-69
2023/01/26 12:34:58;;;;;;;4.43;1.30;;;19.10;39.90;;;;;;5027591;28;20224;-69
2023/01/26 12:37:37;;;;;;;5.30;1.70;;;19.10;39.80;;;;;;5029770;28;20754;-69
2023/01/26 12:40:16;;;;;;;3.85;1.40;;;19.10;39.90;;;;;;5029571;28;20643;-70
2023/01/26 12:42:49;;;;;;;4.30;1.70;;;19.10;39.90;;;;;;5029524;28;20923;-69
2023/01/26 12:45:21;;;;;;;5.00;1.77;;;19.10;39.90;;;;;;5029945;28;20278;-69
2023/01/26 12:47:54;;;;;;;3.60;1.35;;;19.10;39.90;;;;;;5023461;28;20216;-70
2023/01/26 12:50:26;;;;;;;4.13;1.48;;;19.10;39.90;;;;;;5027798;28;20224;-70
2023/01/26 12:52:57;;;;;;;4.25;1.38;;;19.10;39.90;;;;;;5031363;28;20200;-70
2023/01/26 12:55:30;;;;;;;7.28;1.40;;;19.10;39.90;;;;;;5037238;28;20279;-71
2023/01/26 12:58:01;;;;;;;2.35;1.20;;;19.10;39.90;;;;;;5027172;28;20602;-69
2023/01/26 13:00:31;;;;;;;3.55;1.20;;;19.10;39.80;;;;;;5033663;28;20598;-68
2023/01/26 13:03:05;;;;;;;5.07;1.50;;;19.20;40.00;;;;;;5033620;28;20200;-70
2023/01/26 13:05:34;;;;;;;3.30;1.40;;;19.20;40.20;;;;;;5033751;28;20250;-68
2023/01/26 13:08:35;;;;;;;4.68;1.63;;;19.20;40.30;;;;;;5033462;28;20258;-71
2023/01/26 13:11:05;;;;;;;3.33;1.25;;;19.20;40.20;;;;;;5022823;28;21133;-70
2023/01/26 13:13:34;;;;;;;3.90;1.27;;;19.20;40.10;;;;;;5019067;28;20658;-70
2023/01/26 13:16:33;;;;;;;7.15;1.50;;;19.20;40.10;;;;;;5019749;28;20220;-71
2023/01/26 13:19:02;;;;;;;5.20;1.42;;;19.20;40.10;;;;;;5030068;28;20206;-71
2023/01/26 13:21:42;;;;;;;4.95;1.40;;;19.20;40.20;;;;;;5022952;28;20197;-70
2023/01/26 13:24:45;;;;;;;4.60;1.40;;;19.20;40.10;;;;;;5018022;28;20271;-71
2023/01/26 13:27:40;;;;;;;5.60;1.70;;;19.20;40.10;;;;;;5016195;28;20977;-73
2023/01/26 13:30:40;;;;;;;3.47;1.65;;;19.20;40.10;;;;;;5036754;28;20224;-71
2023/01/26 13:33:23;;;;;;;3.40;1.38;;;19.20;40.00;;;;;;5020982;28;20720;-72
2023/01/26 13:35:54;;;;;;;3.35;1.48;;;19.30;40.10;;;;;;5033761;28;20293;-69
2023/01/26 13:38:32;;;;;;;4.68;1.13;;;19.20;40.00;;;;;;5029972;28;20192;-73
2023/01/26 13:41:00;;;;;;;4.45;1.10;;;19.30;40.20;;;;;;5031507;28;20259;-72
2023/01/26 13:43:40;;;;;;;5.55;1.40;;;19.30;40.10;;;;;;5035442;28;20613;-70
2023/01/26 13:46:17;;;;;;;4.53;1.70;;;19.20;40.00;;;;;;5025065;28;20224;-69
2023/01/26 13:48:47;;;;;;;6.95;1.65;;;19.20;40.00;;;;;;5034205;28;20625;-71
2023/01/26 13:51:20;;;;;;;4.63;1.45;;;19.20;39.90;;;;;;5030693;28;20224;-67
2023/01/26 13:54:04;;;;;;;6.95;1.55;;;19.20;40.00;;;;;;5036257;28;20184;-71
2023/01/26 13:56:33;;;;;;;4.00;1.42;;;19.20;39.90;;;;;;5024680;28;20196;-73